sensor_id;sensor_type;location;lat;lon;timestamp;pressure;altitude;pressure_sealevel;temperature;humidity
8637;BME280;4356;49.068;8.658;2023-04-24T00:00:05;98830.44;;;20.65;39.84
8637;BME280;4356;49.068;8.658;2023-04-24T00:02:32;98828.53;;;20.65;39.79
8637;BME280;4356;49.068;8.658;2023-04-24T00:04:58;98831.75;;;20.62;39.75
8637;BME280;4356;49.068;8.658;2023-04-24T00:07:28;98824.94;;;20.60;39.73
8637;BME280;4356;49.068;8.658;2023-04-24T00:09:54;98822.22;;;20.60;39.61
8637;BME280;4356;49.068;8.658;2023-04-24T00:12:20;98816.19;;;20.58;39.69
8637;BME280;4356;49.068;8.658;2023-04-24T00:14:45;98825.50;;;20.62;39.69
8637;BME280;4356;49.068;8.658;2023-04-24T00:17:11;98818.94;;;20.63;39.85
8637;BME280;4356;49.068;8.658;2023-04-24T00:19:37;98808.00;;;20.58;39.61
8637;BME280;4356;49.068;8.658;2023-04-24T00:22:02;98811.56;;;20.58;39.74
8637;BME280;4356;49.068;8.658;2023-04-24T00:24:28;98817.81;;;20.59;39.75
8637;BME280;4356;49.068;8.658;2023-04-24T00:26:54;98815.63;;;20.56;39.83
8637;BME280;4356;49.068;8.658;2023-04-24T00:29:19;98824.06;;;20.54;39.76
8637;BME280;4356;49.068;8.658;2023-04-24T00:31:45;98818.88;;;20.53;39.78
8637;BME280;4356;49.068;8.658;2023-04-24T00:34:11;98820.78;;;20.52;39.77
8637;BME280;4356;49.068;8.658;2023-04-24T00:36:38;98826.25;;;20.52;39.71
8637;BME280;4356;49.068;8.658;2023-04-24T00:39:03;98821.34;;;20.54;39.70
8637;BME280;4356;49.068;8.658;2023-04-24T00:41:29;98828.97;;;20.52;39.76
8637;BME280;4356;49.068;8.658;2023-04-24T00:43:55;98834.69;;;20.51;39.70
8637;BME280;4356;49.068;8.658;2023-04-24T00:46:21;98833.88;;;20.50;39.70
8637;BME280;4356;49.068;8.658;2023-04-24T00:48:47;98820.44;;;20.43;39.66
8637;BME280;4356;49.068;8.658;2023-04-24T00:51:12;98825.66;;;20.50;39.67
8637;BME280;4356;49.068;8.658;2023-04-24T00:53:38;98819.34;;;20.44;39.81
8637;BME280;4356;49.068;8.658;2023-04-24T00:56:04;98816.63;;;20.44;40.00
8637;BME280;4356;49.068;8.658;2023-04-24T00:58:30;98812.50;;;20.42;39.68
8637;BME280;4356;49.068;8.658;2023-04-24T01:00:56;98802.72;;;20.46;39.93
8637;BME280;4356;49.068;8.658;2023-04-24T01:03:29;98807.09;;;20.47;39.89
8637;BME280;4356;49.068;8.658;2023-04-24T01:05:55;98783.81;;;20.34;39.56
8637;BME280;4356;49.068;8.658;2023-04-24T01:08:26;98801.88;;;20.45;39.74
8637;BME280;4356;49.068;8.658;2023-04-24T01:10:52;98792.00;;;20.34;39.69
8637;BME280;4356;49.068;8.658;2023-04-24T01:13:18;98792.00;;;20.34;39.84
8637;BME280;4356;49.068;8.658;2023-04-24T01:15:45;98806.47;;;20.40;39.67
8637;BME280;4356;49.068;8.658;2023-04-24T01:18:11;98803.50;;;20.41;39.72
8637;BME280;4356;49.068;8.658;2023-04-24T01:20:39;98795.22;;;20.31;39.71
8637;BME280;4356;49.068;8.658;2023-04-24T01:23:08;98796.09;;;20.37;39.79
8637;BME280;4356;49.068;8.658;2023-04-24T01:25:34;98800.72;;;20.36;39.88
8637;BME280;4356;49.068;8.658;2023-04-24T01:28:00;98803.75;;;20.40;39.75
8637;BME280;4356;49.068;8.658;2023-04-24T01:30:27;98801.28;;;20.38;39.70
8637;BME280;4356;49.068;8.658;2023-04-24T01:32:53;98798.25;;;20.35;39.70
8637;BME280;4356;49.068;8.658;2023-04-24T01:35:19;98805.94;;;20.38;39.82
8637;BME280;4356;49.068;8.658;2023-04-24T01:37:45;98796.81;;;20.27;39.71
8637;BME280;4356;49.068;8.658;2023-04-24T01:40:11;98801.81;;;20.35;39.58
8637;BME280;4356;49.068;8.658;2023-04-24T01:42:37;98801.53;;;20.37;39.69
8637;BME280;4356;49.068;8.658;2023-04-24T01:45:04;98795.22;;;20.31;39.72
8637;BME280;4356;49.068;8.658;2023-04-24T01:47:31;98798.50;;;20.33;39.67
8637;BME280;4356;49.068;8.658;2023-04-24T01:49:57;98801.53;;;20.37;39.90
8637;BME280;4356;49.068;8.658;2023-04-24T01:52:23;98799.09;;;20.35;39.51
8637;BME280;4356;49.068;8.658;2023-04-24T01:54:50;98794.94;;;20.33;39.78
8637;BME280;4356;49.068;8.658;2023-04-24T01:57:16;98796.88;;;20.32;39.73
8637;BME280;4356;49.068;8.658;2023-04-24T01:59:42;98802.34;;;20.32;39.81
8637;BME280;4356;49.068;8.658;2023-04-24T02:02:07;98798.22;;;20.30;39.92
8637;BME280;4356;49.068;8.658;2023-04-24T02:04:33;98805.31;;;20.31;39.77
8637;BME280;4356;49.068;8.658;2023-04-24T02:06:59;98793.28;;;20.27;39.70
8637;BME280;4356;49.068;8.658;2023-04-24T02:09:24;98800.09;;;20.29;39.88
8637;BME280;4356;49.068;8.658;2023-04-24T02:11:50;98802.03;;;20.29;39.76
8637;BME280;4356;49.068;8.658;2023-04-24T02:14:16;98794.91;;;20.28;39.73
8637;BME280;4356;49.068;8.658;2023-04-24T02:16:41;98792.72;;;20.25;39.74
8637;BME280;4356;49.068;8.658;2023-04-24T02:19:07;98795.19;;;20.26;39.71
8637;BME280;4356;49.068;8.658;2023-04-24T02:21:33;98776.84;;;20.22;39.85
8637;BME280;4356;49.068;8.658;2023-04-24T02:23:59;98789.16;;;20.24;40.03
8637;BME280;4356;49.068;8.658;2023-04-24T02:26:24;98788.59;;;20.22;39.82
8637;BME280;4356;49.068;8.658;2023-04-24T02:28:51;98795.94;;;20.22;39.76
8637;BME280;4356;49.068;8.658;2023-04-24T02:31:17;98789.69;;;20.21;40.00
8637;BME280;4356;49.068;8.658;2023-04-24T02:33:42;98799.78;;;20.21;39.84
8637;BME280;4356;49.068;8.658;2023-04-24T02:36:08;98791.28;;;20.17;39.90
8637;BME280;4356;49.068;8.658;2023-04-24T02:38:33;98801.66;;;20.20;39.78
8637;BME280;4356;49.068;8.658;2023-04-24T02:40:59;98805.75;;;20.18;39.80
8637;BME280;4356;49.068;8.658;2023-04-24T02:43:26;98806.56;;;20.18;40.22
8637;BME280;4356;49.068;8.658;2023-04-24T02:45:51;98792.13;;;20.18;39.82
8637;BME280;4356;49.068;8.658;2023-04-24T02:48:17;98792.34;;;20.16;40.09
8637;BME280;4356;49.068;8.658;2023-04-24T02:50:42;98790.13;;;20.13;39.87
8637;BME280;4356;49.068;8.658;2023-04-24T02:53:08;98791.28;;;20.17;40.03
8637;BME280;4356;49.068;8.658;2023-04-24T02:55:33;98799.13;;;20.14;40.04
8637;BME280;4356;49.068;8.658;2023-04-24T02:57:59;98794.75;;;20.13;40.08
8637;BME280;4356;49.068;8.658;2023-04-24T03:00:25;98786.25;;;20.09;39.94
8637;BME280;4356;49.068;8.658;2023-04-24T03:02:50;98794.22;;;20.11;39.81
8637;BME280;4356;49.068;8.658;2023-04-24T03:05:16;98802.69;;;20.14;39.98
8637;BME280;4356;49.068;8.658;2023-04-24T03:07:42;98797.47;;;20.13;39.94
8637;BME280;4356;49.068;8.658;2023-04-24T03:10:08;98805.91;;;20.11;39.87
8637;BME280;4356;49.068;8.658;2023-04-24T03:12:33;98809.47;;;20.12;40.02
8637;BME280;4356;49.068;8.658;2023-04-24T03:14:59;98803.44;;;20.10;39.97
8637;BME280;4356;49.068;8.658;2023-04-24T03:17:25;98812.44;;;20.05;40.17
8637;BME280;4356;49.068;8.658;2023-04-24T03:19:50;98823.38;;;20.10;40.09
8637;BME280;4356;49.068;8.658;2023-04-24T03:22:16;98826.63;;;20.07;40.12
8637;BME280;4356;49.068;8.658;2023-04-24T03:24:42;98809.56;;;19.95;40.08
8637;BME280;4356;49.068;8.658;2023-04-24T03:27:07;98825.19;;;20.00;40.17
8637;BME280;4356;49.068;8.658;2023-04-24T03:29:33;98810.09;;;19.92;40.29
8637;BME280;4356;49.068;8.658;2023-04-24T03:31:58;98833.94;;;20.02;40.16
8637;BME280;4356;49.068;8.658;2023-04-24T03:34:24;98832.28;;;20.01;40.34
8637;BME280;4356;49.068;8.658;2023-04-24T03:36:50;98842.34;;;20.00;40.31
8637;BME280;4356;49.068;8.658;2023-04-24T03:39:15;98851.34;;;20.01;40.46
8637;BME280;4356;49.068;8.658;2023-04-24T03:41:41;98857.59;;;19.96;40.38
8637;BME280;4356;49.068;8.658;2023-04-24T03:44:07;98864.59;;;19.87;40.46
8637;BME280;4356;49.068;8.658;2023-04-24T03:46:32;98887.50;;;19.91;40.32
8637;BME280;4356;49.068;8.658;2023-04-24T03:48:58;98899.31;;;19.97;40.35
8637;BME280;4356;49.068;8.658;2023-04-24T03:51:23;98896.84;;;19.95;40.29
8637;BME280;4356;49.068;8.658;2023-04-24T03:53:49;98876.56;;;19.86;40.43
8637;BME280;4356;49.068;8.658;2023-04-24T03:56:15;98885.09;;;19.95;40.55
8637;BME280;4356;49.068;8.658;2023-04-24T03:58:40;98875.53;;;19.92;40.47
8637;BME280;4356;49.068;8.658;2023-04-24T04:01:06;98889.19;;;19.92;40.50
8637;BME280;4356;49.068;8.658;2023-04-24T04:03:32;98891.66;;;19.94;40.57
8637;BME280;4356;49.068;8.658;2023-04-24T04:05:58;98876.81;;;19.85;40.43
8637;BME280;4356;49.068;8.658;2023-04-24T04:08:24;98888.59;;;19.90;40.34
8637;BME280;4356;49.068;8.658;2023-04-24T04:10:49;98910.41;;;19.90;40.22
8637;BME280;4356;49.068;8.658;2023-04-24T04:13:15;98903.75;;;19.81;40.29
8637;BME280;4356;49.068;8.658;2023-04-24T04:15:40;98913.16;;;19.90;40.26
8637;BME280;4356;49.068;8.658;2023-04-24T04:18:06;98917.75;;;19.90;40.59
8637;BME280;4356;49.068;8.658;2023-04-24T04:20:32;98918.03;;;19.88;40.38
8637;BME280;4356;49.068;8.658;2023-04-24T04:22:57;98923.47;;;19.88;40.21
8637;BME280;4356;49.068;8.658;2023-04-24T04:25:23;98918.03;;;19.88;40.32
8637;BME280;4356;49.068;8.658;2023-04-24T04:27:49;98924.78;;;19.86;40.42
8637;BME280;4356;49.068;8.658;2023-04-24T04:30:16;98925.88;;;19.85;40.29
8637;BME280;4356;49.068;8.658;2023-04-24T04:32:43;98919.81;;;19.78;40.31
8637;BME280;4356;49.068;8.658;2023-04-24T04:35:09;98931.34;;;19.85;40.26
8637;BME280;4356;49.068;8.658;2023-04-24T04:37:35;98932.44;;;19.84;40.39
8637;BME280;4356;49.068;8.658;2023-04-24T04:40:02;98920.56;;;19.73;40.20
8637;BME280;4356;49.068;8.658;2023-04-24T04:42:36;98938.69;;;19.84;40.46
8637;BME280;4356;49.068;8.658;2023-04-24T04:45:07;98933.75;;;19.81;40.53
8637;BME280;4356;49.068;8.658;2023-04-24T04:47:34;98940.25;;;19.80;40.59
8637;BME280;4356;49.068;8.658;2023-04-24T04:50:00;98930.34;;;19.69;40.49
8637;BME280;4356;49.068;8.658;2023-04-24T04:52:26;98944.34;;;19.78;40.57
8637;BME280;4356;49.068;8.658;2023-04-24T04:54:52;98947.91;;;19.78;40.37
8637;BME280;4356;49.068;8.658;2023-04-24T04:57:18;98951.44;;;19.79;40.43
8637;BME280;4356;49.068;8.658;2023-04-24T04:59:44;98954.66;;;19.76;40.38
8637;BME280;4356;49.068;8.658;2023-04-24T05:02:10;98966.97;;;19.78;40.42
8637;BME280;4356;49.068;8.658;2023-04-24T05:04:35;98953.19;;;19.68;40.33
8637;BME280;4356;49.068;8.658;2023-04-24T05:07:01;98975.16;;;19.78;40.58
8637;BME280;4356;49.068;8.658;2023-04-24T05:09:27;98972.91;;;19.75;40.48
8637;BME280;4356;49.068;8.658;2023-04-24T05:11:54;98962.53;;;19.72;40.47
8637;BME280;4356;49.068;8.658;2023-04-24T05:14:20;98962.94;;;19.64;40.52
8637;BME280;4356;49.068;8.658;2023-04-24T05:16:47;98980.03;;;19.76;40.57
8637;BME280;4356;49.068;8.658;2023-04-24T05:19:12;98956.38;;;19.60;40.59
8637;BME280;4356;49.068;8.658;2023-04-24T05:21:40;98955.09;;;19.68;40.60
8637;BME280;4356;49.068;8.658;2023-04-24T05:24:06;98977.06;;;19.78;40.34
8637;BME280;4356;49.068;8.658;2023-04-24T05:26:31;98964.69;;;19.70;40.42
8637;BME280;4356;49.068;8.658;2023-04-24T05:28:57;98973.75;;;19.76;40.41
8637;BME280;4356;49.068;8.658;2023-04-24T05:31:23;98976.75;;;19.74;40.50
8637;BME280;4356;49.068;8.658;2023-04-24T05:33:48;98990.16;;;19.81;40.39
8637;BME280;4356;49.068;8.658;2023-04-24T05:36:15;98997.88;;;19.84;40.48
8637;BME280;4356;49.068;8.658;2023-04-24T05:38:41;98999.19;;;19.81;40.51
8637;BME280;4356;49.068;8.658;2023-04-24T05:41:06;99001.41;;;19.84;40.43
8637;BME280;4356;49.068;8.658;2023-04-24T05:43:32;99004.13;;;19.84;40.67
8637;BME280;4356;49.068;8.658;2023-04-24T05:45:58;98998.66;;;19.84;40.37
8637;BME280;4356;49.068;8.658;2023-04-24T05:48:23;99004.53;;;19.93;40.27
8637;BME280;4356;49.068;8.658;2023-04-24T05:50:49;99006.91;;;19.89;40.46
8637;BME280;4356;49.068;8.658;2023-04-24T05:53:16;99015.50;;;19.98;40.52
8637;BME280;4356;49.068;8.658;2023-04-24T05:55:41;99016.34;;;19.98;40.49
8637;BME280;4356;49.068;8.658;2023-04-24T05:58:07;99014.97;;;20.01;40.22
8637;BME280;4356;49.068;8.658;2023-04-24T06:00:34;99025.38;;;20.04;40.30
8637;BME280;4356;49.068;8.658;2023-04-24T06:03:00;99012.56;;;20.04;40.21
8637;BME280;4356;49.068;8.658;2023-04-24T06:05:27;99018.34;;;20.08;40.30
8637;BME280;4356;49.068;8.658;2023-04-24T06:07:53;99007.94;;;20.05;40.26
8637;BME280;4356;49.068;8.658;2023-04-24T06:10:19;99013.22;;;20.11;39.96
8637;BME280;4356;49.068;8.658;2023-04-24T06:12:44;99019.25;;;20.13;40.16
8637;BME280;4356;49.068;8.658;2023-04-24T06:15:10;99010.78;;;20.15;40.26
8637;BME280;4356;49.068;8.658;2023-04-24T06:17:37;99010.00;;;20.14;40.07
8637;BME280;4356;49.068;8.658;2023-04-24T06:20:03;99025.94;;;20.22;40.09
8637;BME280;4356;49.068;8.658;2023-04-24T06:22:30;99029.50;;;20.23;40.02
8637;BME280;4356;49.068;8.658;2023-04-24T06:24:56;99030.31;;;20.23;40.06
8637;BME280;4356;49.068;8.658;2023-04-24T06:27:22;99028.41;;;20.24;40.02
8637;BME280;4356;49.068;8.658;2023-04-24T06:29:47;99025.66;;;20.24;40.10
8637;BME280;4356;49.068;8.658;2023-04-24T06:32:20;99031.97;;;20.24;40.01
8637;BME280;4356;49.068;8.658;2023-04-24T06:34:46;99038.81;;;20.27;40.10
8637;BME280;4356;49.068;8.658;2023-04-24T06:37:11;99033.38;;;20.27;39.90
8637;BME280;4356;49.068;8.658;2023-04-24T06:39:37;99041.81;;;20.25;40.06
8637;BME280;4356;49.068;8.658;2023-04-24T06:42:02;99030.91;;;20.25;39.93
8637;BME280;4356;49.068;8.658;2023-04-24T06:44:28;99031.97;;;20.24;39.82
8637;BME280;4356;49.068;8.658;2023-04-24T06:46:54;99036.91;;;20.27;40.01
8637;BME280;4356;49.068;8.658;2023-04-24T06:49:19;99026.00;;;20.27;40.06
8637;BME280;4356;49.068;8.658;2023-04-24T06:51:45;99038.56;;;20.28;39.87
8637;BME280;4356;49.068;8.658;2023-04-24T06:54:11;99030.91;;;20.25;39.76
8637;BME280;4356;49.068;8.658;2023-04-24T06:56:36;99033.38;;;20.27;39.89
8637;BME280;4356;49.068;8.658;2023-04-24T06:59:02;99047.06;;;20.32;39.77
8637;BME280;4356;49.068;8.658;2023-04-24T07:01:28;99038.03;;;20.31;39.79
8637;BME280;4356;49.068;8.658;2023-04-24T07:03:53;99027.66;;;20.28;39.84
8637;BME280;4356;49.068;8.658;2023-04-24T07:06:19;99029.59;;;20.33;39.63
8637;BME280;4356;49.068;8.658;2023-04-24T07:08:48;99035.63;;;20.35;39.72
8637;BME280;4356;49.068;8.658;2023-04-24T07:11:13;99048.22;;;20.36;39.74
8637;BME280;4356;49.068;8.658;2023-04-24T07:13:39;99049.28;;;20.35;39.67
8637;BME280;4356;49.068;8.658;2023-04-24T07:16:07;99050.09;;;20.35;39.68
8637;BME280;4356;49.068;8.658;2023-04-24T07:18:33;99079.59;;;20.38;39.72
8637;BME280;4356;49.068;8.658;2023-04-24T07:20:59;99054.47;;;20.36;39.67
8637;BME280;4356;49.068;8.658;2023-04-24T07:23:26;99062.44;;;20.38;39.60
8637;BME280;4356;49.068;8.658;2023-04-24T07:25:51;99057.50;;;20.40;39.55
8637;BME280;4356;49.068;8.658;2023-04-24T07:28:17;99062.16;;;20.39;39.50
8637;BME280;4356;49.068;8.658;2023-04-24T07:30:43;99066.06;;;20.43;39.47
8637;BME280;4356;49.068;8.658;2023-04-24T07:33:09;99058.34;;;20.40;39.36
8637;BME280;4356;49.068;8.658;2023-04-24T07:35:36;99064.38;;;20.42;39.33
8637;BME280;4356;49.068;8.658;2023-04-24T07:38:02;99070.16;;;20.46;39.45
8637;BME280;4356;49.068;8.658;2023-04-24T07:40:27;99074.78;;;20.45;39.25
8637;BME280;4356;49.068;8.658;2023-04-24T07:42:53;99084.38;;;20.48;39.25
8637;BME280;4356;49.068;8.658;2023-04-24T07:45:19;99086.28;;;20.47;39.08
8637;BME280;4356;49.068;8.658;2023-04-24T07:47:44;99080.81;;;20.47;39.08
8637;BME280;4356;49.068;8.658;2023-04-24T07:50:11;99091.25;;;20.51;39.24
8637;BME280;4356;49.068;8.658;2023-04-24T07:52:37;99101.31;;;20.50;39.28
8637;BME280;4356;49.068;8.658;2023-04-24T07:55:03;99109.50;;;20.50;39.02
8637;BME280;4356;49.068;8.658;2023-04-24T07:57:30;99097.28;;;20.53;39.24
8637;BME280;4356;49.068;8.658;2023-04-24T07:59:55;99109.81;;;20.54;39.16
8637;BME280;4356;49.068;8.658;2023-04-24T08:02:21;99110.66;;;20.54;39.08
8637;BME280;4356;49.068;8.658;2023-04-24T08:04:54;99113.41;;;20.54;39.08
8637;BME280;4356;49.068;8.658;2023-04-24T08:07:20;99126.78;;;20.56;39.01
8637;BME280;4356;49.068;8.658;2023-04-24T08:09:46;99144.56;;;20.58;38.91
8637;BME280;4356;49.068;8.658;2023-04-24T08:12:11;99134.34;;;20.48;38.87
8637;BME280;4356;49.068;8.658;2023-04-24T08:14:37;99154.97;;;20.61;38.70
8637;BME280;4356;49.068;8.658;2023-04-24T08:17:03;99151.94;;;20.58;38.96
8637;BME280;4356;49.068;8.658;2023-04-24T08:19:29;99165.31;;;20.59;38.98
8637;BME280;4356;49.068;8.658;2023-04-24T08:21:54;99168.31;;;20.58;38.87
8637;BME280;4356;49.068;8.658;2023-04-24T08:24:20;99171.88;;;20.58;38.82
8637;BME280;4356;49.068;8.658;2023-04-24T08:26:46;99163.41;;;20.60;38.71
8637;BME280;4356;49.068;8.658;2023-04-24T08:29:15;99165.56;;;20.58;38.79
8637;BME280;4356;49.068;8.658;2023-04-24T08:31:41;99168.88;;;20.60;38.77
8637;BME280;4356;49.068;8.658;2023-04-24T08:34:07;99166.16;;;20.60;38.67
8637;BME280;4356;49.068;8.658;2023-04-24T08:36:32;99171.03;;;20.58;38.81
8637;BME280;4356;49.068;8.658;2023-04-24T08:38:58;99172.41;;;20.60;38.58
8637;BME280;4356;49.068;8.658;2023-04-24T08:41:24;99162.06;;;20.62;38.64
8637;BME280;4356;49.068;8.658;2023-04-24T08:43:51;99176.28;;;20.64;38.69
8637;BME280;4356;49.068;8.658;2023-04-24T08:46:18;99175.66;;;20.57;38.38
8637;BME280;4356;49.068;8.658;2023-04-24T08:48:45;99187.66;;;20.56;38.05
8637;BME280;4356;49.068;8.658;2023-04-24T08:51:11;99185.09;;;20.49;37.79
8637;BME280;4356;49.068;8.658;2023-04-24T08:53:37;99181.66;;;20.37;37.89
8637;BME280;4356;49.068;8.658;2023-04-24T08:56:02;99201.81;;;20.36;37.60
8637;BME280;4356;49.068;8.658;2023-04-24T08:58:28;99197.41;;;20.30;37.77
8637;BME280;4356;49.068;8.658;2023-04-24T09:00:55;99200.84;;;20.26;37.99
8637;BME280;4356;49.068;8.658;2023-04-24T09:03:21;99212.69;;;20.31;38.10
8637;BME280;4356;49.068;8.658;2023-04-24T09:05:48;99212.41;;;20.33;38.17
8637;BME280;4356;49.068;8.658;2023-04-24T09:08:16;99207.78;;;20.33;38.12
8637;BME280;4356;49.068;8.658;2023-04-24T09:10:43;99209.22;;;20.36;38.06
8637;BME280;4356;49.068;8.658;2023-04-24T09:13:09;99205.97;;;20.39;37.99
8637;BME280;4356;49.068;8.658;2023-04-24T09:15:36;99202.16;;;20.40;37.74
8637;BME280;4356;49.068;8.658;2023-04-24T09:18:02;99204.13;;;20.44;37.82
8637;BME280;4356;49.068;8.658;2023-04-24T09:20:28;99202.81;;;20.47;37.80
8637;BME280;4356;49.068;8.658;2023-04-24T09:22:54;99192.91;;;20.41;37.35
8637;BME280;4356;49.068;8.658;2023-04-24T09:25:21;99214.97;;;20.56;37.57
8637;BME280;4356;49.068;8.658;2023-04-24T09:27:47;99195.19;;;20.49;37.47
8637;BME280;4356;49.068;8.658;2023-04-24T09:30:13;99224.28;;;20.60;37.51
8637;BME280;4356;49.068;8.658;2023-04-24T09:32:40;99223.78;;;20.63;37.50
8637;BME280;4356;49.068;8.658;2023-04-24T09:35:14;99219.97;;;20.64;37.26
8637;BME280;4356;49.068;8.658;2023-04-24T09:37:46;99233.16;;;20.67;37.32
8637;BME280;4356;49.068;8.658;2023-04-24T09:40:17;99235.88;;;20.67;37.41
8637;BME280;4356;49.068;8.658;2023-04-24T09:42:44;99232.56;;;20.65;37.29
8637;BME280;4356;49.068;8.658;2023-04-24T09:45:11;99238.25;;;20.64;37.33
8637;BME280;4356;49.068;8.658;2023-04-24T09:47:40;99253.88;;;20.68;37.59
8637;BME280;4356;49.068;8.658;2023-04-24T09:50:16;99246.53;;;20.69;37.29
8637;BME280;4356;49.068;8.658;2023-04-24T09:52:46;99250.06;;;20.69;37.25
8637;BME280;4356;49.068;8.658;2023-04-24T09:55:20;99242.31;;;20.61;37.38
8637;BME280;4356;49.068;8.658;2023-04-24T09:58:04;99253.31;;;20.66;37.27
8637;BME280;4356;49.068;8.658;2023-04-24T10:00:32;99261.56;;;20.71;37.28
8637;BME280;4356;49.068;8.658;2023-04-24T10:03:03;99251.41;;;20.67;37.39
8637;BME280;4356;49.068;8.658;2023-04-24T10:05:33;99261.00;;;20.69;37.25
8637;BME280;4356;49.068;8.658;2023-04-24T10:08:06;99251.75;;;20.70;37.31
8637;BME280;4356;49.068;8.658;2023-04-24T10:10:33;99256.09;;;20.71;37.30
8637;BME280;4356;49.068;8.658;2023-04-24T10:13:00;99250.91;;;20.70;37.25
8637;BME280;4356;49.068;8.658;2023-04-24T10:15:27;99255.31;;;20.71;37.34
8637;BME280;4356;49.068;8.658;2023-04-24T10:17:53;99253.38;;;20.71;37.18
8637;BME280;4356;49.068;8.658;2023-04-24T10:20:23;99256.19;;;20.76;37.09
8637;BME280;4356;49.068;8.658;2023-04-24T10:22:51;99248.25;;;20.75;37.16
8637;BME280;4356;49.068;8.658;2023-04-24T10:25:22;99260.91;;;20.81;37.17
8637;BME280;4356;49.068;8.658;2023-04-24T10:27:50;99259.56;;;20.83;37.10
8637;BME280;4356;49.068;8.658;2023-04-24T10:30:17;99257.91;;;20.82;36.92
8637;BME280;4356;49.068;8.658;2023-04-24T10:32:43;99257.06;;;20.82;36.88
8637;BME280;4356;49.068;8.658;2023-04-24T10:35:10;99259.31;;;20.85;37.10
8637;BME280;4356;49.068;8.658;2023-04-24T10:37:41;99263.94;;;20.84;36.92
8637;BME280;4356;49.068;8.658;2023-04-24T10:40:08;99261.28;;;20.89;36.85
8637;BME280;4356;49.068;8.658;2023-04-24T10:42:35;99244.75;;;20.79;36.88
8637;BME280;4356;49.068;8.658;2023-04-24T10:45:06;99264.53;;;20.86;36.88
8637;BME280;4356;49.068;8.658;2023-04-24T10:47:41;99273.28;;;20.88;36.86
8637;BME280;4356;49.068;8.658;2023-04-24T10:50:10;99283.69;;;20.91;36.94
8637;BME280;4356;49.068;8.658;2023-04-24T10:52:49;99287.22;;;20.87;36.74
8637;BME280;4356;49.068;8.658;2023-04-24T10:55:42;99285.59;;;20.91;36.76
8637;BME280;4356;49.068;8.658;2023-04-24T10:58:09;99287.78;;;20.89;36.75
8637;BME280;4356;49.068;8.658;2023-04-24T11:00:39;99292.41;;;20.88;36.84
8637;BME280;4356;49.068;8.658;2023-04-24T11:03:23;99293.25;;;20.89;36.92
8637;BME280;4356;49.068;8.658;2023-04-24T11:10:59;99294.88;;;20.90;37.01
8637;BME280;4356;49.068;8.658;2023-04-24T11:13:31;99283.97;;;20.90;36.94
8637;BME280;4356;49.068;8.658;2023-04-24T11:18:51;99297.94;;;20.93;36.87
8637;BME280;4356;49.068;8.658;2023-04-24T11:21:20;99282.63;;;20.92;36.84
8637;BME280;4356;49.068;8.658;2023-04-24T11:23:47;99292.72;;;20.92;36.76
8637;BME280;4356;49.068;8.658;2023-04-24T11:26:18;99301.75;;;20.92;36.73
8637;BME280;4356;49.068;8.658;2023-04-24T11:28:45;99302.56;;;20.93;36.83
8637;BME280;4356;49.068;8.658;2023-04-24T11:31:35;99313.59;;;20.98;36.70
8637;BME280;4356;49.068;8.658;2023-04-24T11:34:11;99309.75;;;20.99;36.72
8637;BME280;4356;49.068;8.658;2023-04-24T11:36:37;99319.03;;;20.98;36.76
8637;BME280;4356;49.068;8.658;2023-04-24T11:39:03;99316.09;;;20.99;36.58
8637;BME280;4356;49.068;8.658;2023-04-24T11:41:29;99319.63;;;21.00;36.74
8637;BME280;4356;49.068;8.658;2023-04-24T11:43:58;99309.13;;;20.92;36.89
8637;BME280;4356;49.068;8.658;2023-04-24T11:46:27;99311.84;;;20.92;36.79
8637;BME280;4356;49.068;8.658;2023-04-24T11:48:54;99320.09;;;20.97;36.81
8637;BME280;4356;49.068;8.658;2023-04-24T11:51:19;99328.41;;;21.02;36.83
8637;BME280;4356;49.068;8.658;2023-04-24T11:53:45;99302.50;;;20.88;36.97
8637;BME280;4356;49.068;8.658;2023-04-24T11:56:17;99324.03;;;21.01;36.88
8637;BME280;4356;49.068;8.658;2023-04-24T11:58:44;99331.72;;;21.04;36.87
8637;BME280;4356;49.068;8.658;2023-04-24T12:01:10;99328.72;;;21.05;36.74
8637;BME280;4356;49.068;8.658;2023-04-24T12:03:35;99343.22;;;21.06;36.86
8637;BME280;4356;49.068;8.658;2023-04-24T12:06:08;99338.53;;;21.01;36.82
8637;BME280;4356;49.068;8.658;2023-04-24T12:08:34;99353.31;;;21.05;36.77
8637;BME280;4356;49.068;8.658;2023-04-24T12:11:04;99352.25;;;21.06;36.62
8637;BME280;4356;49.068;8.658;2023-04-24T12:13:32;99360.44;;;21.06;36.77
8637;BME280;4356;49.068;8.658;2023-04-24T12:15:58;99337.94;;;20.99;37.01
8637;BME280;4356;49.068;8.658;2023-04-24T12:18:24;99355.81;;;21.07;36.97
8637;BME280;4356;49.068;8.658;2023-04-24T12:20:50;99353.56;;;21.04;36.90
8637;BME280;4356;49.068;8.658;2023-04-24T12:23:16;99329.50;;;21.01;36.86
8637;BME280;4356;49.068;8.658;2023-04-24T12:25:43;99349.25;;;21.08;36.60
8637;BME280;4356;49.068;8.658;2023-04-24T12:28:12;99341.91;;;21.08;36.96
8637;BME280;4356;49.068;8.658;2023-04-24T12:30:45;99349.31;;;21.13;36.63
8637;BME280;4356;49.068;8.658;2023-04-24T12:33:21;99343.38;;;21.16;36.81
8637;BME280;4356;49.068;8.658;2023-04-24T12:35:52;99317.00;;;21.05;36.55
8637;BME280;4356;49.068;8.658;2023-04-24T12:38:26;99345.00;;;21.17;36.75
8637;BME280;4356;49.068;8.658;2023-04-24T12:41:04;99336.56;;;21.18;36.85
8637;BME280;4356;49.068;8.658;2023-04-24T12:43:30;99336.56;;;21.18;36.84
8637;BME280;4356;49.068;8.658;2023-04-24T12:45:56;99339.53;;;21.17;36.71
8637;BME280;4356;49.068;8.658;2023-04-24T12:48:22;99335.72;;;21.18;36.49
8637;BME280;4356;49.068;8.658;2023-04-24T12:50:48;99330.84;;;21.20;36.59
8637;BME280;4356;49.068;8.658;2023-04-24T12:53:14;99323.22;;;21.22;36.58
8637;BME280;4356;49.068;8.658;2023-04-24T12:55:40;99319.69;;;21.21;36.68
8637;BME280;4356;49.068;8.658;2023-04-24T12:58:06;99324.56;;;21.19;36.58
8637;BME280;4356;49.068;8.658;2023-04-24T13:00:32;99329.19;;;21.19;36.64
8637;BME280;4356;49.068;8.658;2023-04-24T13:02:58;99327.88;;;21.21;36.65
8637;BME280;4356;49.068;8.658;2023-04-24T13:05:24;99321.00;;;21.19;36.64
8637;BME280;4356;49.068;8.658;2023-04-24T13:07:50;99325.88;;;21.17;36.44
8637;BME280;4356;49.068;8.658;2023-04-24T13:10:16;99331.03;;;21.13;36.31
8637;BME280;4356;49.068;8.658;2023-04-24T13:12:44;99328.56;;;21.12;36.02
8637;BME280;4356;49.068;8.658;2023-04-24T13:15:11;99329.56;;;21.06;36.17
8637;BME280;4356;49.068;8.658;2023-04-24T13:17:37;99319.84;;;20.98;36.04
8637;BME280;4356;49.068;8.658;2023-04-24T13:20:04;99325.19;;;21.05;36.13
8637;BME280;4356;49.068;8.658;2023-04-24T13:22:29;99322.44;;;21.05;35.94
8637;BME280;4356;49.068;8.658;2023-04-24T13:24:55;99315.84;;;21.01;35.74
8637;BME280;4356;49.068;8.658;2023-04-24T13:27:21;99324.28;;;20.99;35.63